Time;durP1;ratioP1;P1;durP2;ratioP2;P2;SDS_P1;SDS_P2;PMS_P1;PMS_P2;Temp;Humidity;BMP_temperature;BMP_pressure;BME280_temperature;BME280_humidity;BME280_pressure;Samples;Min_cycle;Max_cycle;Signal;HPM_P1;HPM_P2
2022/12/18 00:01:27;;;;;;;23.30;11.00;;;;;;;;;;6212268;28;20010;-77
2022/12/18 00:04:28;;;;;;;35.40;13.93;;;;;;;;;;6216900;28;20029;-77
2022/12/18 00:07:29;;;;;;;32.90;14.40;;;;;;;;;;6221629;28;20025;-77
2022/12/18 00:10:29;;;;;;;38.65;16.13;;;;;;;;;;6215702;28;20045;-77
2022/12/18 00:13:29;;;;;;;34.70;13.60;;;;;;;;;;6214068;28;20099;-77
2022/12/18 00:16:32;;;;;;;33.70;13.53;;;;;;;;;;6213015;28;20014;-77
2022/12/18 00:19:32;;;;;;;30.67;13.63;;;;;;;;;;6206516;28;20486;-76
2022/12/18 00:22:33;;;;;;;38.40;15.97;;;;;;;;;;6210738;28;20014;-76
2022/12/18 00:25:34;;;;;;;34.83;15.88;;;;;;;;;;6223451;28;20034;-76
2022/12/18 00:28:34;;;;;;;56.38;23.98;;;;;;;;;;6205478;28;20134;-76
2022/12/18 00:31:34;;;;;;;54.83;22.10;;;;;;;;;;6209634;28;20490;-77
2022/12/18 00:34:35;;;;;;;41.63;18.57;;;;;;;;;;6213427;28;20509;-76
2022/12/18 00:37:36;;;;;;;33.13;13.90;;;;;;;;;;6212692;28;20025;-77
2022/12/18 00:40:36;;;;;;;41.08;16.65;;;;;;;;;;6228235;28;20143;-77
2022/12/18 00:43:37;;;;;;;28.70;14.18;;;;;;;;;;6213460;28;20018;-76
2022/12/18 00:46:37;;;;;;;47.70;19.27;;;;;;;;;;6213000;28;20180;-76
2022/12/18 00:49:38;;;;;;;34.17;13.87;;;;;;;;;;6214182;28;20373;-76
2022/12/18 00:52:41;;;;;;;25.25;13.23;;;;;;;;;;6212209;28;20488;-76
2022/12/18 00:55:41;;;;;;;28.67;13.35;;;;;;;;;;6204400;28;20452;-77
2022/12/18 00:58:42;;;;;;;31.77;15.00;;;;;;;;;;6214688;28;20024;-77
2022/12/18 01:01:42;;;;;;;34.25;16.77;;;;;;;;;;6212738;28;20187;-77
2022/12/18 01:04:42;;;;;;;26.90;11.60;;;;;;;;;;6213864;28;20104;-77
2022/12/18 01:07:42;;;;;;;37.33;15.23;;;;;;;;;;6211033;28;20030;-76
2022/12/18 01:10:43;;;;;;;38.80;15.87;;;;;;;;;;6216424;28;20393;-77
2022/12/18 01:13:43;;;;;;;33.43;14.13;;;;;;;;;;6213327;28;20021;-76
2022/12/18 01:16:43;;;;;;;33.57;14.00;;;;;;;;;;6211102;28;20041;-76
2022/12/18 01:19:43;;;;;;;36.17;17.83;;;;;;;;;;6212808;28;20026;-76
2022/12/18 01:22:44;;;;;;;32.03;14.63;;;;;;;;;;6210831;28;20026;-76
2022/12/18 01:25:44;;;;;;;40.23;15.97;;;;;;;;;;6209656;28;20026;-76
2022/12/18 01:28:44;;;;;;;34.87;16.13;;;;;;;;;;6207934;28;20571;-76
2022/12/18 01:31:44;;;;;;;34.03;15.83;;;;;;;;;;6213521;28;20033;-76
2022/12/18 01:34:45;;;;;;;32.70;14.98;;;;;;;;;;6214005;28;20257;-75
2022/12/18 01:37:45;;;;;;;35.03;15.60;;;;;;;;;;6210960;28;20231;-75
2022/12/18 01:40:45;;;;;;;25.17;11.10;;;;;;;;;;6214183;28;20021;-75
2022/12/18 01:43:47;;;;;;;36.73;15.70;;;;;;;;;;6211715;28;20397;-75
2022/12/18 01:46:47;;;;;;;37.00;16.33;;;;;;;;;;6205752;28;20030;-75
2022/12/18 01:49:48;;;;;;;32.15;14.02;;;;;;;;;;6203330;28;20018;-75
2022/12/18 01:52:53;;;;;;;30.90;14.90;;;;;;;;;;6204863;28;20026;-75
2022/12/18 01:55:54;;;;;;;42.70;16.30;;;;;;;;;;6210160;28;20025;-75
2022/12/18 01:58:55;;;;;;;;;;;;;;;;;;6207704;28;20477;-75
2022/12/18 02:01:55;;;;;;;37.15;15.27;;;;;;;;;;6208087;28;20400;-75
2022/12/18 02:04:56;;;;;;;33.08;14.50;;;;;;;;;;6209808;28;20477;-75
2022/12/18 02:07:56;;;;;;;31.73;13.25;;;;;;;;;;6209395;28;20059;-75
2022/12/18 02:11:02;;;;;;;30.52;12.65;;;;;;;;;;6216967;28;20120;-75
2022/12/18 02:14:14;;;;;;;42.95;14.32;;;;;;;;;;6211744;28;20262;-75
2022/12/18 02:17:20;;;;;;;38.85;15.60;;;;;;;;;;6210005;28;20112;-76
2022/12/18 02:20:36;;;;;;;29.85;14.65;;;;;;;;;;6206424;28;20030;-76
2022/12/18 02:23:36;;;;;;;37.22;16.60;;;;;;;;;;6206363;28;20034;-76
2022/12/18 02:26:39;;;;;;;35.17;15.10;;;;;;;;;;6208423;28;20034;-76
2022/12/18 02:29:53;;;;;;;37.50;16.67;;;;;;;;;;6210500;28;20508;-76
2022/12/18 02:32:54;;;;;;;34.90;15.38;;;;;;;;;;6209300;28;20249;-76
2022/12/18 02:35:55;;;;;;;39.00;14.83;;;;;;;;;;6209344;28;20287;-77
2022/12/18 02:38:56;;;;;;;35.63;14.77;;;;;;;;;;6204014;28;20054;-77
2022/12/18 02:41:57;;;;;;;41.73;16.47;;;;;;;;;;6210290;28;20666;-77
2022/12/18 02:44:57;;;;;;;34.50;15.45;;;;;;;;;;6207417;28;20018;-77
2022/12/18 02:47:57;;;;;;;39.40;15.13;;;;;;;;;;6211070;28;20712;-77
2022/12/18 02:50:57;;;;;;;39.10;18.17;;;;;;;;;;6207824;28;20022;-77
2022/12/18 02:54:03;;;;;;;38.53;16.70;;;;;;;;;;6211937;28;20021;-76
2022/12/18 02:57:12;;;;;;;45.40;18.90;;;;;;;;;;6213218;28;20030;-76
2022/12/18 03:00:18;;;;;;;37.58;15.75;;;;;;;;;;6213485;28;20029;-77
2022/12/18 03:03:38;;;;;;;41.72;16.70;;;;;;;;;;6209551;28;20429;-77
2022/12/18 03:06:41;;;;;;;45.03;17.30;;;;;;;;;;6204446;28;20038;-77
2022/12/18 03:09:43;;;;;;;41.17;17.50;;;;;;;;;;6211933;28;20025;-78
2022/12/18 03:12:46;;;;;;;41.50;15.80;;;;;;;;;;6213086;28;20029;-77
2022/12/18 03:15:51;;;;;;;45.88;17.55;;;;;;;;;;6217009;28;20022;-78
2022/12/18 03:18:54;;;;;;;47.67;21.05;;;;;;;;;;6222554;28;20097;-78
2022/12/18 03:21:57;;;;;;;38.38;16.38;;;;;;;;;;6215826;28;20010;-78
2022/12/18 03:24:58;;;;;;;41.33;17.88;;;;;;;;;;6212812;28;20530;-78
2022/12/18 03:28:01;;;;;;;50.05;18.45;;;;;;;;;;6210978;28;20022;-77
2022/12/18 03:31:05;;;;;;;49.60;18.33;;;;;;;;;;6202807;28;20021;-78
2022/12/18 03:34:11;;;;;;;34.78;15.90;;;;;;;;;;6217652;28;20141;-78
2022/12/18 03:37:11;;;;;;;50.55;19.23;;;;;;;;;;6214840;28;20065;-77
2022/12/18 03:40:11;;;;;;;55.73;22.47;;;;;;;;;;6214721;28;20060;-79
2022/12/18 03:43:30;;;;;;;49.73;19.07;;;;;;;;;;6214896;28;20030;-78
2022/12/18 03:46:49;;;;;;;45.97;20.15;;;;;;;;;;6217322;28;20125;-77
2022/12/18 03:49:56;;;;;;;44.50;18.83;;;;;;;;;;6211269;28;20026;-79
2022/12/18 03:53:02;;;;;;;56.35;22.30;;;;;;;;;;6206234;28;20026;-78
2022/12/18 03:56:03;;;;;;;52.15;19.45;;;;;;;;;;6208468;28;20028;-78
2022/12/18 03:59:04;;;;;;;41.75;17.08;;;;;;;;;;6213182;28;20030;-78
2022/12/18 04:02:06;;;;;;;46.47;22.00;;;;;;;;;;6214121;28;20022;-78
2022/12/18 04:05:06;;;;;;;;;;;;;;;;;;6193147;28;20116;-77
2022/12/18 04:08:07;;;;;;;36.40;16.80;;;;;;;;;;6213313;28;19905;-77
2022/12/18 04:11:07;;;;;;;42.40;16.33;;;;;;;;;;6212590;28;20033;-78
2022/12/18 04:14:07;;;;;;;38.97;16.85;;;;;;;;;;6215040;28;20064;-77
2022/12/18 04:17:07;;;;;;;53.50;20.08;;;;;;;;;;6212211;28;20017;-77
2022/12/18 04:20:08;;;;;;;48.97;18.10;;;;;;;;;;6212598;28;20088;-77
2022/12/18 04:23:08;;;;;;;41.53;18.60;;;;;;;;;;6231374;28;20080;-77
2022/12/18 04:26:08;;;;;;;58.47;25.83;;;;;;;;;;6209515;28;20072;-77
2022/12/18 04:29:08;;;;;;;45.75;22.45;;;;;;;;;;6214473;28;20030;-77
2022/12/18 04:32:09;;;;;;;44.47;18.60;;;;;;;;;;6215618;28;20044;-77
2022/12/18 04:35:10;;;;;;;47.70;19.07;;;;;;;;;;6214556;28;20377;-77
2022/12/18 04:38:10;;;;;;;44.70;18.95;;;;;;;;;;6212826;28;20045;-77
2022/12/18 04:41:13;;;;;;;44.97;20.03;;;;;;;;;;6213651;28;20401;-78
2022/12/18 04:44:14;;;;;;;47.80;18.80;;;;;;;;;;6211010;28;20423;-77
2022/12/18 04:47:14;;;;;;;50.70;19.60;;;;;;;;;;6214327;28;20025;-78
2022/12/18 04:50:14;;;;;;;53.53;21.38;;;;;;;;;;6214723;28;20022;-77
2022/12/18 04:53:14;;;;;;;37.80;14.73;;;;;;;;;;6206435;28;20026;-77
2022/12/18 04:56:15;;;;;;;45.50;20.50;;;;;;;;;;6211691;28;20120;-77
2022/12/18 04:59:16;;;;;;;46.47;18.10;;;;;;;;;;6212213;28;20030;-77
2022/12/18 05:02:16;;;;;;;42.37;17.23;;;;;;;;;;6213403;28;20114;-77
2022/12/18 05:05:16;;;;;;;42.43;17.10;;;;;;;;;;6211799;28;20022;-77
2022/12/18 05:08:16;;;;;;;45.60;18.63;;;;;;;;;;6207529;28;20030;-78
2022/12/18 05:11:17;;;;;;;33.40;14.63;;;;;;;;;;6212814;28;20025;-78
2022/12/18 05:14:17;;;;;;;44.60;18.23;;;;;;;;;;6214855;28;20021;-78
2022/12/18 05:17:17;;;;;;;45.23;19.27;;;;;;;;;;6213616;28;20101;-78
2022/12/18 05:20:18;;;;;;;48.17;20.23;;;;;;;;;;6210063;28;20109;-78
2022/12/18 05:23:18;;;;;;;37.60;15.40;;;;;;;;;;6212554;28;20029;-78
2022/12/18 05:26:19;;;;;;;48.57;21.87;;;;;;;;;;6217067;28;20431;-78
2022/12/18 05:29:19;;;;;;;43.03;18.47;;;;;;;;;;6210965;28;20032;-79
2022/12/18 05:32:19;;;;;;;44.35;17.13;;;;;;;;;;6207372;28;20029;-78
2022/12/18 05:35:19;;;;;;;47.70;20.57;;;;;;;;;;6214518;28;20018;-78
2022/12/18 05:38:20;;;;;;;55.05;19.08;;;;;;;;;;6217045;28;20069;-78
2022/12/18 05:41:20;;;;;;;46.23;19.50;;;;;;;;;;6219756;28;20059;-78
2022/12/18 05:44:20;;;;;;;45.13;16.53;;;;;;;;;;6208579;28;20080;-78
2022/12/18 05:47:21;;;;;;;42.85;15.45;;;;;;;;;;6211960;28;20061;-78
2022/12/18 05:50:21;;;;;;;43.33;17.17;;;;;;;;;;6211881;28;20401;-78
2022/12/18 05:53:21;;;;;;;43.93;15.80;;;;;;;;;;6212217;28;20030;-78
2022/12/18 05:56:22;;;;;;;42.47;16.30;;;;;;;;;;6213060;28;20106;-78
2022/12/18 05:59:22;;;;;;;41.73;17.23;;;;;;;;;;6196732;28;20106;-78
2022/12/18 06:02:22;;;;;;;56.47;21.00;;;;;;;;;;6212045;28;20210;-78
2022/12/18 06:05:22;;;;;;;50.67;22.07;;;;;;;;;;6211573;28;20273;-78
2022/12/18 06:08:23;;;;;;;58.60;24.35;;;;;;;;;;6212794;28;20046;-77
2022/12/18 06:11:24;;;;;;;45.87;19.67;;;;;;;;;;6208467;28;20081;-78
2022/12/18 06:14:24;;;;;;;68.65;26.52;;;;;;;;;;6208312;28;20053;-78
2022/12/18 06:17:31;;;;;;;52.27;20.70;;;;;;;;;;6212329;28;20026;-77
2022/12/18 06:20:32;;;;;;;48.40;20.27;;;;;;;;;;6205255;28;20025;-77
2022/12/18 06:23:32;;;;;;;52.90;22.43;;;;;;;;;;6203568;28;20116;-78
2022/12/18 06:26:32;;;;;;;49.83;22.07;;;;;;;;;;6215503;28;20068;-77
2022/12/18 06:29:32;;;;;;;43.88;18.75;;;;;;;;;;6213434;28;20184;-77
2022/12/18 06:32:32;;;;;;;54.67;22.13;;;;;;;;;;6216783;28;20556;-77
2022/12/18 06:35:33;;;;;;;61.20;27.97;;;;;;;;;;6215773;28;20097;-77
2022/12/18 06:38:33;;;;;;;58.33;24.63;;;;;;;;;;6218886;28;20034;-77
2022/12/18 06:41:34;;;;;;;77.40;30.43;;;;;;;;;;6211815;28;20129;-77
2022/12/18 06:44:34;;;;;;;57.67;25.37;;;;;;;;;;6215014;28;20500;-78
2022/12/18 06:47:34;;;;;;;44.47;20.57;;;;;;;;;;6216826;28;20064;-77
2022/12/18 06:50:34;;;;;;;48.43;23.93;;;;;;;;;;6215999;28;20457;-77
2022/12/18 06:53:34;;;;;;;57.00;23.77;;;;;;;;;;6211816;28;20108;-78
2022/12/18 06:56:35;;;;;;;74.03;32.90;;;;;;;;;;6212384;28;20089;-77
2022/12/18 06:59:35;;;;;;;70.17;30.20;;;;;;;;;;6210250;28;20078;-77
2022/12/18 07:02:35;;;;;;;66.63;31.10;;;;;;;;;;6208819;28;20024;-77
2022/12/18 07:05:39;;;;;;;65.93;31.77;;;;;;;;;;6210954;28;20646;-77
2022/12/18 07:08:39;;;;;;;70.78;33.95;;;;;;;;;;6214263;28;20029;-78
2022/12/18 07:11:39;;;;;;;64.40;29.60;;;;;;;;;;6206831;28;20053;-77
2022/12/18 07:14:40;;;;;;;74.47;30.17;;;;;;;;;;6217762;28;20117;-78
2022/12/18 07:17:40;;;;;;;76.57;32.23;;;;;;;;;;6215993;28;20049;-77
2022/12/18 07:20:41;;;;;;;68.83;32.07;;;;;;;;;;6213301;28;20469;-77
2022/12/18 07:23:41;;;;;;;87.87;37.43;;;;;;;;;;6211396;28;20108;-77
2022/12/18 07:26:41;;;;;;;73.73;30.97;;;;;;;;;;6211251;28;20018;-77
2022/12/18 07:29:41;;;;;;;78.37;33.83;;;;;;;;;;6209515;28;20034;-77
2022/12/18 07:32:42;;;;;;;96.80;45.33;;;;;;;;;;6213917;28;20034;-77
2022/12/18 07:35:43;;;;;;;88.43;41.57;;;;;;;;;;6214417;28;20439;-78
2022/12/18 07:38:46;;;;;;;54.33;28.08;;;;;;;;;;6213048;28;20046;-79
2022/12/18 07:42:30;;;;;;;108.25;49.00;;;;;;;;;;6210994;28;20390;-79
2022/12/18 07:45:08;;;;;;;100.97;43.47;;;;;;;;;;6203342;28;20029;-78
2022/12/18 07:48:09;;;;;;;79.95;37.65;;;;;;;;;;6205009;28;20027;-77
2022/12/18 07:51:12;;;;;;;64.80;29.93;;;;;;;;;;6208474;28;20049;-78
2022/12/18 07:54:14;;;;;;;68.78;30.23;;;;;;;;;;6203494;28;20631;-77
2022/12/18 07:57:14;;;;;;;119.63;50.38;;;;;;;;;;6201231;28;20512;-77
2022/12/18 08:00:14;;;;;;;111.47;44.93;;;;;;;;;;6211635;28;20018;-78
2022/12/18 08:03:14;;;;;;;79.37;38.03;;;;;;;;;;6207012;28;20116;-78
2022/12/18 08:06:15;;;;;;;80.53;40.87;;;;;;;;;;6210433;28;20128;-79
2022/12/18 08:09:15;;;;;;;76.60;35.60;;;;;;;;;;6214390;28;20519;-78
2022/12/18 08:12:15;;;;;;;66.47;31.20;;;;;;;;;;6208108;28;20034;-78
2022/12/18 08:15:15;;;;;;;80.53;37.67;;;;;;;;;;6204501;28;20026;-77
2022/12/18 08:18:15;;;;;;;82.23;33.87;;;;;;;;;;6214215;28;20014;-75
2022/12/18 08:21:21;;;;;;;64.80;27.08;;;;;;;;;;6213724;28;20022;-77
2022/12/18 08:24:21;;;;;;;61.80;27.83;;;;;;;;;;6215635;28;20394;-77
2022/12/18 08:27:22;;;;;;;68.77;31.33;;;;;;;;;;6211402;28;20030;-77
2022/12/18 08:30:22;;;;;;;66.60;30.50;;;;;;;;;;6195028;28;20034;-77
2022/12/18 08:33:23;;;;;;;55.53;25.07;;;;;;;;;;6214294;28;20388;-77
2022/12/18 08:36:24;;;;;;;71.90;32.70;;;;;;;;;;6213794;28;20029;-77
2022/12/18 08:39:24;;;;;;;87.63;39.27;;;;;;;;;;6206582;28;20161;-79
2022/12/18 08:45:43;;;;;;;84.07;37.30;;;;;;;;;;6217486;28;20033;-78
2022/12/18 08:48:43;;;;;;;66.37;32.90;;;;;;;;;;6212878;28;20540;-78
2022/12/18 08:51:44;;;;;;;89.60;38.20;;;;;;;;;;6206999;28;20022;-78
2022/12/18 08:54:44;;;;;;;63.10;33.90;;;;;;;;;;6213281;28;20030;-77
2022/12/18 08:57:47;;;;;;;65.60;29.23;;;;;;;;;;6203642;28;20024;-77
2022/12/18 09:00:47;;;;;;;78.18;33.95;;;;;;;;;;6202809;28;20018;-77
2022/12/18 09:03:48;;;;;;;86.90;38.23;;;;;;;;;;6214503;28;20749;-78
2022/12/18 09:06:49;;;;;;;87.23;37.80;;;;;;;;;;6217729;28;20342;-78
2022/12/18 09:09:49;;;;;;;89.57;33.63;;;;;;;;;;6220343;28;20030;-79
2022/12/18 09:12:49;;;;;;;86.23;32.40;;;;;;;;;;6215957;28;20097;-79
2022/12/18 09:15:51;;;;;;;93.53;33.37;;;;;;;;;;6213557;28;20407;-79
2022/12/18 09:18:51;;;;;;;115.30;38.55;;;;;;;;;;6205538;28;20033;-78
2022/12/18 09:21:51;;;;;;;138.03;50.73;;;;;;;;;;6211447;28;20038;-78
2022/12/18 09:24:51;;;;;;;95.20;34.87;;;;;;;;;;6213196;28;20536;-78
2022/12/18 09:27:52;;;;;;;87.53;31.13;;;;;;;;;;6209150;28;20272;-78
2022/12/18 09:30:52;;;;;;;91.93;33.63;;;;;;;;;;6213204;28;20026;-78
2022/12/18 09:33:54;;;;;;;68.10;28.57;;;;;;;;;;6208185;28;20052;-78
2022/12/18 09:36:54;;;;;;;103.93;38.65;;;;;;;;;;6213800;28;20028;-78
2022/12/18 09:39:54;;;;;;;77.50;29.00;;;;;;;;;;6201266;28;20038;-79
2022/12/18 09:42:59;;;;;;;85.33;26.47;;;;;;;;;;6201416;28;20090;-79
2022/12/18 09:46:02;;;;;;;90.32;30.77;;;;;;;;;;6199290;28;20592;-79
2022/12/18 09:49:06;;;;;;;98.45;34.63;;;;;;;;;;6206829;28;20069;-78
2022/12/18 09:52:15;;;;;;;94.63;34.20;;;;;;;;;;6190094;28;20033;-79
2022/12/18 09:55:36;;;;;;;83.97;33.72;;;;;;;;;;6198801;28;20145;-78
2022/12/18 09:58:41;;;;;;;58.55;26.40;;;;;;;;;;6202616;28;20022;-79
2022/12/18 10:01:41;;;;;;;101.50;34.20;;;;;;;;;;6197773;28;20021;-79
2022/12/18 10:04:42;;;;;;;87.57;33.10;;;;;;;;;;6204664;28;20025;-81
2022/12/18 10:07:54;;;;;;;92.47;32.60;;;;;;;;;;6210778;28;20176;-80
2022/12/18 10:11:03;;;;;;;88.05;32.97;;;;;;;;;;6219466;28;20021;-80
2022/12/18 10:14:06;;;;;;;113.45;38.70;;;;;;;;;;6204564;28;20449;-80
2022/12/18 10:17:17;;;;;;;118.63;40.53;;;;;;;;;;6217768;28;20045;-80
2022/12/18 10:20:17;;;;;;;104.88;34.15;;;;;;;;;;6214935;28;20029;-80
2022/12/18 10:23:26;;;;;;;88.07;29.27;;;;;;;;;;6213214;28;20053;-81
2022/12/18 10:26:26;;;;;;;68.32;23.08;;;;;;;;;;6204396;28;20033;-80
2022/12/18 10:29:27;;;;;;;60.77;20.77;;;;;;;;;;6205841;28;20030;-80
2022/12/18 10:32:28;;;;;;;61.30;24.40;;;;;;;;;;6211951;28;20108;-80
2022/12/18 10:35:29;;;;;;;69.03;22.60;;;;;;;;;;6203817;28;20026;-81
2022/12/18 10:38:31;;;;;;;72.57;21.57;;;;;;;;;;6211302;28;20037;-82
2022/12/18 10:41:32;;;;;;;95.00;35.15;;;;;;;;;;6223519;28;20013;-81
2022/12/18 10:44:32;;;;;;;95.97;33.13;;;;;;;;;;6226222;28;20507;-81
2022/12/18 10:47:33;;;;;;;85.57;31.63;;;;;;;;;;6216002;28;20101;-81
2022/12/18 10:50:34;;;;;;;93.68;34.35;;;;;;;;;;6214315;28;20026;-81
2022/12/18 10:53:36;;;;;;;80.03;30.67;;;;;;;;;;6213629;28;20025;-80
2022/12/18 10:56:37;;;;;;;82.78;31.17;;;;;;;;;;6225490;28;20381;-80
2022/12/18 10:59:50;;;;;;;71.63;28.25;;;;;;;;;;6210905;28;20076;-80
2022/12/18 11:02:51;;;;;;;73.97;29.90;;;;;;;;;;6201320;28;20361;-80
2022/12/18 11:06:01;;;;;;;52.40;22.63;;;;;;;;;;6209863;28;20655;-80
2022/12/18 11:09:02;;;;;;;59.42;23.33;;;;;;;;;;6205111;28;20478;-81
2022/12/18 11:12:03;;;;;;;;;;;;;;;;;;6217526;28;20377;-80
2022/12/18 11:15:03;;;;;;;75.43;28.80;;;;;;;;;;6219863;28;20377;-80
2022/12/18 11:18:03;;;;;;;82.67;28.77;;;;;;;;;;6211076;28;20498;-80
2022/12/18 11:21:08;;;;;;;77.20;32.23;;;;;;;;;;6195888;28;20023;-80
2022/12/18 11:24:18;;;;;;;75.35;30.52;;;;;;;;;;6212460;28;20034;-80
2022/12/18 11:27:19;;;;;;;73.45;28.05;;;;;;;;;;6203590;28;20550;-79
2022/12/18 11:30:19;;;;;;;56.77;24.53;;;;;;;;;;6224348;28;20029;-80
2022/12/18 11:33:20;;;;;;;56.83;21.43;;;;;;;;;;6219037;28;20359;-80
2022/12/18 11:36:21;;;;;;;59.60;25.95;;;;;;;;;;6220010;28;20033;-81
2022/12/18 11:39:31;;;;;;;67.57;24.33;;;;;;;;;;6217424;28;20079;-81
2022/12/18 11:42:37;;;;;;;52.05;25.08;;;;;;;;;;6213422;28;20068;-80
2022/12/18 11:45:45;;;;;;;57.95;23.00;;;;;;;;;;6209484;28;20477;-80
2022/12/18 11:48:49;;;;;;;48.92;22.20;;;;;;;;;;6217239;28;20057;-80
2022/12/18 11:51:53;;;;;;;49.95;22.27;;;;;;;;;;6224540;28;20076;-81
2022/12/18 11:54:56;;;;;;;56.42;23.33;;;;;;;;;;6226637;28;20026;-81
2022/12/18 11:58:07;;;;;;;65.47;25.42;;;;;;;;;;6226188;28;20098;-82
2022/12/18 12:01:10;;;;;;;60.83;23.08;;;;;;;;;;6229193;28;20449;-80
2022/12/18 12:04:26;;;;;;;62.28;23.65;;;;;;;;;;6220731;28;20122;-81
2022/12/18 12:07:37;;;;;;;54.65;23.60;;;;;;;;;;6222536;28;20030;-79
2022/12/18 12:10:37;;;;;;;57.38;23.27;;;;;;;;;;6219947;28;20017;-79
2022/12/18 12:13:40;;;;;;;53.33;20.43;;;;;;;;;;6224806;28;20107;-80
2022/12/18 12:16:52;;;;;;;56.00;23.10;;;;;;;;;;6213590;28;20619;-79
2022/12/18 12:20:08;;;;;;;60.72;26.60;;;;;;;;;;6227561;28;20002;-79
2022/12/18 12:23:17;;;;;;;60.35;22.80;;;;;;;;;;6215734;28;20065;-80
2022/12/18 12:26:27;;;;;;;57.67;23.95;;;;;;;;;;6210529;28;20029;-80
2022/12/18 12:29:51;;;;;;;60.13;23.88;;;;;;;;;;6203241;28;20022;-81
2022/12/18 12:33:09;;;;;;;55.20;24.13;;;;;;;;;;6202982;28;20033;-79
2022/12/18 12:36:20;;;;;;;56.13;21.95;;;;;;;;;;6209575;28;20010;-81
2022/12/18 12:39:30;;;;;;;51.00;20.05;;;;;;;;;;6207674;28;20045;-80
2022/12/18 12:45:54;;;;;;;53.42;24.85;;;;;;;;;;6215575;28;20037;-80
2022/12/18 12:49:09;;;;;;;61.05;23.90;;;;;;;;;;6218153;28;20435;-79
2022/12/18 12:52:14;;;;;;;52.35;21.20;;;;;;;;;;6211597;28;20369;-80
2022/12/18 12:55:20;;;;;;;53.17;22.02;;;;;;;;;;6214615;28;20326;-80
2022/12/18 12:58:31;;;;;;;55.35;23.70;;;;;;;;;;6212311;28;20014;-80
2022/12/18 13:01:41;;;;;;;53.25;23.00;;;;;;;;;;6215250;28;20053;-80
2022/12/18 13:04:46;;;;;;;54.92;24.63;;;;;;;;;;6210757;28;20448;-80
2022/12/18 13:07:50;;;;;;;56.53;25.75;;;;;;;;;;6212898;28;20593;-80
2022/12/18 13:12:55;;;;;;;61.60;25.38;;;;;;;;;;6206239;28;20406;-81
2022/12/18 13:14:20;;;;;;;55.33;22.92;;;;;;;;;;6216091;28;20080;-80
2022/12/18 13:17:20;;;;;;;51.33;23.10;;;;;;;;;;6225763;28;20022;-80
2022/12/18 13:20:20;;;;;;;45.35;18.38;;;;;;;;;;6216294;28;20033;-79
2022/12/18 13:23:23;;;;;;;45.57;18.17;;;;;;;;;;6216522;28;20092;-79
2022/12/18 13:26:26;;;;;;;46.58;19.40;;;;;;;;;;6208168;28;20026;-80
2022/12/18 13:29:43;;;;;;;41.42;18.88;;;;;;;;;;6213013;28;20502;-80
2022/12/18 13:32:44;;;;;;;51.65;23.98;;;;;;;;;;6215574;28;20030;-80
2022/12/18 13:35:47;;;;;;;40.22;18.92;;;;;;;;;;6215217;28;20025;-81
2022/12/18 13:38:47;;;;;;;50.22;22.35;;;;;;;;;;6215914;28;20389;-81
2022/12/18 13:43:12;;;;;;;44.50;18.77;;;;;;;;;;6213950;28;20418;-80
2022/12/18 13:45:38;;;;;;;34.33;16.98;;;;;;;;;;6200269;28;20061;-80
2022/12/18 13:48:40;;;;;;;53.30;26.10;;;;;;;;;;6219480;28;20010;-81
2022/12/18 13:51:42;;;;;;;58.67;24.95;;;;;;;;;;6225108;28;20369;-81
2022/12/18 13:54:44;;;;;;;58.88;23.00;;;;;;;;;;6220277;28;20429;-82
2022/12/18 13:57:45;;;;;;;61.22;26.73;;;;;;;;;;6216122;28;20006;-81
2022/12/18 14:00:45;;;;;;;57.87;24.03;;;;;;;;;;6216038;28;20017;-81
2022/12/18 14:03:45;;;;;;;47.37;21.37;;;;;;;;;;6219736;28;20014;-80
2022/12/18 14:06:46;;;;;;;48.80;22.67;;;;;;;;;;6219103;28;20456;-81
2022/12/18 14:09:49;;;;;;;51.22;22.50;;;;;;;;;;6220023;28;20093;-81
2022/12/18 14:12:59;;;;;;;48.53;19.63;;;;;;;;;;6215916;28;20402;-80
2022/12/18 14:16:01;;;;;;;41.65;19.88;;;;;;;;;;6217486;28;20017;-80
2022/12/18 14:19:01;;;;;;;;;;;;;;;;;;6217876;28;20105;-81
2022/12/18 14:22:01;;;;;;;43.33;18.45;;;;;;;;;;6216172;28;19905;-80
2022/12/18 14:25:08;;;;;;;52.30;24.17;;;;;;;;;;6203892;28;20045;-78
2022/12/18 14:28:13;;;;;;;64.78;27.20;;;;;;;;;;6217925;28;20325;-78
2022/12/18 14:31:20;;;;;;;65.38;27.75;;;;;;;;;;6213637;28;20026;-79
2022/12/18 14:34:25;;;;;;;50.78;22.67;;;;;;;;;;6210638;28;20018;-81
2022/12/18 14:37:26;;;;;;;58.55;26.38;;;;;;;;;;6213197;28;20385;-79
2022/12/18 14:40:27;;;;;;;59.27;25.27;;;;;;;;;;6215421;28;20073;-79
2022/12/18 14:43:28;;;;;;;67.57;30.10;;;;;;;;;;6208412;28;20072;-80
2022/12/18 14:46:28;;;;;;;69.82;29.75;;;;;;;;;;6204683;28;20186;-80
2022/12/18 14:49:30;;;;;;;58.72;26.38;;;;;;;;;;6211641;28;20042;-80
2022/12/18 14:52:31;;;;;;;60.08;28.25;;;;;;;;;;6202882;28;20057;-80
2022/12/18 14:55:31;;;;;;;65.40;27.05;;;;;;;;;;6218985;28;20030;-79
2022/12/18 14:58:32;;;;;;;54.83;25.07;;;;;;;;;;6225119;28;20022;-79
2022/12/18 15:01:58;;;;;;;62.33;29.40;;;;;;;;;;6218201;28;20247;-79
2022/12/18 15:05:15;;;;;;;61.10;28.52;;;;;;;;;;6192710;28;20026;-79
2022/12/18 15:08:30;;;;;;;63.75;28.10;;;;;;;;;;6217762;28;20029;-79
2022/12/18 15:11:50;;;;;;;59.97;28.67;;;;;;;;;;6213257;28;20444;-79
2022/12/18 15:14:50;;;;;;;58.72;26.17;;;;;;;;;;6199775;28;20022;-79
2022/12/18 15:17:56;;;;;;;63.57;29.20;;;;;;;;;;6205584;28;20433;-78
2022/12/18 15:20:58;;;;;;;59.17;26.23;;;;;;;;;;6211860;28;20026;-79
2022/12/18 15:23:59;;;;;;;68.28;29.38;;;;;;;;;;6216317;28;20492;-78
2022/12/18 15:26:59;;;;;;;67.07;28.13;;;;;;;;;;6223062;28;20022;-78
2022/12/18 15:30:09;;;;;;;69.90;32.63;;;;;;;;;;6223353;28;20108;-77
2022/12/18 15:33:17;;;;;;;79.70;34.20;;;;;;;;;;6209040;28;20437;-77
2022/12/18 15:36:17;;;;;;;74.60;33.03;;;;;;;;;;6209893;28;20026;-77
2022/12/18 15:39:18;;;;;;;73.93;32.90;;;;;;;;;;6214320;28;20108;-77
2022/12/18 15:45:37;;;;;;;70.07;36.28;;;;;;;;;;6215985;28;20069;-78
2022/12/18 15:48:41;;;;;;;84.40;36.00;;;;;;;;;;6219966;28;20099;-78
2022/12/18 15:51:43;;;;;;;72.97;32.55;;;;;;;;;;6212943;28;20040;-78
2022/12/18 15:58:03;;;;;;;67.15;32.38;;;;;;;;;;6211014;28;20029;-79
2022/12/18 16:01:03;;;;;;;90.13;38.33;;;;;;;;;;6201748;28;20422;-78
2022/12/18 16:04:04;;;;;;;89.23;41.00;;;;;;;;;;6203802;28;20019;-78
2022/12/18 16:07:04;;;;;;;87.23;39.80;;;;;;;;;;6210703;28;20100;-78
2022/12/18 16:10:04;;;;;;;99.18;44.22;;;;;;;;;;6212020;28;20018;-78
2022/12/18 16:13:05;;;;;;;94.70;44.20;;;;;;;;;;6213107;28;20273;-77
2022/12/18 16:16:08;;;;;;;94.10;42.40;;;;;;;;;;6218837;28;20445;-76
2022/12/18 16:19:08;;;;;;;101.65;45.35;;;;;;;;;;6205293;28;20388;-76
2022/12/18 16:22:20;;;;;;;92.50;44.40;;;;;;;;;;6195710;28;20026;-77
2022/12/18 16:25:21;;;;;;;87.18;41.60;;;;;;;;;;6214036;28;20029;-78
2022/12/18 16:28:21;;;;;;;82.47;40.90;;;;;;;;;;6208466;28;20050;-77
2022/12/18 16:31:22;;;;;;;83.23;40.67;;;;;;;;;;6211656;28;20408;-78
2022/12/18 16:34:25;;;;;;;100.23;46.37;;;;;;;;;;6211722;28;20026;-78
2022/12/18 16:37:26;;;;;;;98.72;49.38;;;;;;;;;;6206471;28;20418;-78
2022/12/18 16:40:26;;;;;;;116.70;53.00;;;;;;;;;;6208625;28;20133;-77
2022/12/18 16:43:27;;;;;;;115.77;54.53;;;;;;;;;;6202999;28;20068;-77
2022/12/18 16:46:27;;;;;;;119.97;59.90;;;;;;;;;;6203967;28;20022;-77
2022/12/18 16:49:27;;;;;;;125.10;56.63;;;;;;;;;;6207832;28;20441;-77
2022/12/18 16:52:29;;;;;;;118.57;55.23;;;;;;;;;;6200063;28;20469;-77
2022/12/18 16:55:29;;;;;;;125.70;56.13;;;;;;;;;;6209179;28;20137;-77
2022/12/18 16:58:29;;;;;;;113.27;54.67;;;;;;;;;;6210805;28;20021;-77
2022/12/18 17:01:30;;;;;;;112.90;57.17;;;;;;;;;;6202133;28;20509;-77
2022/12/18 17:04:30;;;;;;;120.77;57.87;;;;;;;;;;6205750;28;20361;-77
2022/12/18 17:07:31;;;;;;;119.77;56.03;;;;;;;;;;6207863;28;20045;-77
2022/12/18 17:10:31;;;;;;;116.83;53.53;;;;;;;;;;6211641;28;20026;-77
2022/12/18 17:13:33;;;;;;;115.53;57.30;;;;;;;;;;6211295;28;20026;-77
2022/12/18 17:16:33;;;;;;;125.80;58.17;;;;;;;;;;6208774;28;20018;-78
2022/12/18 17:19:33;;;;;;;110.57;52.33;;;;;;;;;;6213535;28;20025;-78
2022/12/18 17:22:33;;;;;;;116.17;52.37;;;;;;;;;;6214996;28;20018;-79
2022/12/18 17:25:33;;;;;;;114.25;52.15;;;;;;;;;;6209592;28;20116;-80
2022/12/18 17:28:34;;;;;;;106.07;47.07;;;;;;;;;;6207326;28;20108;-80
2022/12/18 17:31:34;;;;;;;100.07;47.67;;;;;;;;;;6210517;28;20413;-80
2022/12/18 17:34:35;;;;;;;79.37;40.63;;;;;;;;;;6193876;28;20025;-81
2022/12/18 17:37:36;;;;;;;99.88;46.00;;;;;;;;;;6213790;28;20520;-80
2022/12/18 17:40:36;;;;;;;94.53;44.80;;;;;;;;;;6209427;28;20061;-80
2022/12/18 17:43:38;;;;;;;113.63;53.23;;;;;;;;;;6202069;28;20094;-79
2022/12/18 17:46:38;;;;;;;113.15;52.10;;;;;;;;;;6201572;28;20053;-78
2022/12/18 17:49:39;;;;;;;107.43;48.33;;;;;;;;;;6196783;28;20026;-76
2022/12/18 17:52:39;;;;;;;104.43;46.17;;;;;;;;;;6205962;28;20034;-76
2022/12/18 17:55:39;;;;;;;106.93;45.77;;;;;;;;;;6198760;28;20537;-75